Eastermar, Netherlands
Current Conditions -  °F | °C
As of 4:36 AM on Saturday 29 Nov 2014 (Local Time) from EHLW Reporting Station
Haze Haze  
Wind Chill: 26°   Ceiling: Unl
Heat Index: 36°   Visibility: 3mi
Dew Point: 32°   Wind: 15mph
Humidity: 87%   Direction: 100°E
Pressure: 29.97"   Gusts: NA
Location:  53.17°N, 6.06°E
Report Text: EHLW 290336Z AUTO 10013KT 4800 BR FEW150 02/M00 Q1015 GRN
Loading
Personal Weather Stations






























Interactive Weather Map New forecast layout! Learn more

10-Day Weather Forecast

Advertisements
Track Severe Weather on mobile